Time;durP1;ratioP1;P1;durP2;ratioP2;P2;SDS_P1;SDS_P2;PMS_P1;PMS_P2;Temp;Humidity;BMP_temperature;BMP_pressure;BME280_temperature;BME280_humidity;BME280_pressure;Samples;Min_cycle;Max_cycle;Signal;HPM_P1;HPM_P2
2022/08/13 00:00:58;;;;;;;0.70;0.70;;;28.60;27.20;;;;;;5110724;27;45302;-73
2022/08/13 00:03:26;;;;;;;0.80;0.80;;;28.60;27.20;;;;;;5110918;27;45223;-72
2022/08/13 00:05:54;;;;;;;0.80;0.80;;;28.60;27.30;;;;;;5110421;27;46986;-73
2022/08/13 00:08:23;;;;;;;0.80;0.80;;;28.60;27.30;;;;;;5110501;27;45288;-73
2022/08/13 00:10:50;;;;;;;0.70;0.70;;;28.50;27.30;;;;;;5110660;27;45251;-73
2022/08/13 00:13:18;;;;;;;0.90;0.90;;;28.60;27.40;;;;;;5110883;27;45122;-72
2022/08/13 00:15:45;;;;;;;0.68;0.68;;;28.50;27.30;;;;;;5109939;27;45620;-71
2022/08/13 00:18:14;;;;;;;0.80;0.80;;;28.50;27.40;;;;;;5110332;27;45283;-73
2022/08/13 00:20:44;;;;;;;0.90;0.90;;;28.50;27.50;;;;;;5110688;27;45134;-72
2022/08/13 00:23:13;;;;;;;1.00;0.90;;;28.40;27.40;;;;;;5110576;27;45403;-73
2022/08/13 00:25:40;;;;;;;1.35;1.00;;;28.40;28.10;;;;;;5110102;27;46620;-73
2022/08/13 00:28:07;;;;;;;0.70;0.70;;;28.40;27.60;;;;;;5110198;27;45132;-73
2022/08/13 00:30:36;;;;;;;1.15;0.90;;;28.40;27.50;;;;;;5123352;27;45248;-72
2022/08/13 00:33:04;;;;;;;0.73;0.60;;;28.40;27.50;;;;;;5131058;27;45263;-73
2022/08/13 00:35:31;;;;;;;1.00;0.60;;;28.40;27.60;;;;;;5130507;27;47560;-72
2022/08/13 00:37:58;;;;;;;1.05;0.95;;;28.40;27.60;;;;;;5130772;27;45221;-72
2022/08/13 00:40:25;;;;;;;1.90;0.90;;;28.30;27.60;;;;;;5130087;27;45317;-73
2022/08/13 00:42:52;;;;;;;0.90;0.90;;;28.30;27.60;;;;;;5130781;27;45286;-73
2022/08/13 00:45:19;;;;;;;0.77;0.77;;;28.30;28.10;;;;;;5130548;27;45472;-73
2022/08/13 00:50:32;;;;;;;0.65;0.65;;;28.20;27.60;;;;;;5130940;27;45261;-73
2022/08/13 00:52:59;;;;;;;0.70;0.70;;;28.20;27.70;;;;;;5112108;27;45293;-73
2022/08/13 00:55:26;;;;;;;0.70;0.70;;;28.20;27.70;;;;;;5109669;27;45539;-73
2022/08/13 00:57:53;;;;;;;0.80;0.80;;;28.20;27.80;;;;;;5109739;27;45284;-72
2022/08/13 01:00:21;;;;;;;0.60;0.60;;;28.20;27.70;;;;;;5107187;27;45168;-73
2022/08/13 01:02:51;;;;;;;0.75;0.75;;;28.10;27.70;;;;;;5110025;27;45140;-73
2022/08/13 01:05:19;;;;;;;1.50;1.10;;;28.10;27.80;;;;;;5109249;27;46807;-73
2022/08/13 01:07:46;;;;;;;0.77;0.77;;;28.10;27.80;;;;;;5109627;27;45309;-70
2022/08/13 01:10:14;;;;;;;0.60;0.60;;;28.10;27.80;;;;;;5109697;27;45180;-70
2022/08/13 01:12:41;;;;;;;0.90;0.90;;;28.10;27.80;;;;;;5109793;27;45462;-73
2022/08/13 01:15:10;;;;;;;0.98;0.80;;;28.00;27.90;;;;;;5109239;27;46427;-73
2022/08/13 01:17:37;;;;;;;0.75;0.60;;;28.00;28.00;;;;;;5109432;27;45276;-72
2022/08/13 01:20:07;;;;;;;1.08;0.80;;;28.00;28.00;;;;;;5109608;27;45268;-72
2022/08/13 01:22:35;;;;;;;1.40;0.75;;;27.90;28.00;;;;;;5109744;27;45386;-72
2022/08/13 01:25:04;;;;;;;0.80;0.80;;;27.90;27.90;;;;;;5109248;27;46374;-72
2022/08/13 01:27:31;;;;;;;0.90;0.90;;;27.90;28.00;;;;;;5109213;27;45248;-72
2022/08/13 01:30:01;;;;;;;0.80;0.80;;;27.90;28.10;;;;;;5117204;27;45525;-73
2022/08/13 01:32:27;;;;;;;1.02;0.90;;;27.90;28.20;;;;;;5130309;27;45168;-72
2022/08/13 01:34:54;;;;;;;1.10;1.10;;;27.90;28.20;;;;;;5129636;27;46216;-72
2022/08/13 01:37:21;;;;;;;0.70;0.70;;;27.90;28.20;;;;;;5128772;27;45225;-72
2022/08/13 01:39:52;;;;;;;1.77;0.82;;;27.80;28.30;;;;;;5129915;27;45327;-72
2022/08/13 01:42:20;;;;;;;0.90;0.90;;;27.80;28.20;;;;;;5130052;27;45552;-72
2022/08/13 01:44:47;;;;;;;0.70;0.70;;;27.80;28.30;;;;;;5129477;27;45454;-72
2022/08/13 01:52:42;;;;;;;0.85;0.85;;;27.70;28.40;;;;;;5110972;27;45320;-72
2022/08/13 01:55:11;;;;;;;0.80;0.80;;;27.70;28.50;;;;;;5108600;27;45582;-72
2022/08/13 01:57:40;;;;;;;0.70;0.70;;;27.70;28.40;;;;;;5108955;27;45118;-72
2022/08/13 02:00:08;;;;;;;0.98;0.98;;;27.70;28.50;;;;;;5108870;27;45279;-73
2022/08/13 02:02:35;;;;;;;0.80;0.80;;;27.60;28.40;;;;;;5109050;27;45402;-72
2022/08/13 02:05:03;;;;;;;0.70;0.70;;;27.60;28.50;;;;;;5108561;27;45271;-72
2022/08/13 02:07:30;;;;;;;0.90;0.75;;;27.60;28.50;;;;;;5108648;27;45172;-72
2022/08/13 02:09:57;;;;;;;1.48;0.95;;;27.60;28.50;;;;;;5106089;27;45279;-72
2022/08/13 02:12:25;;;;;;;0.80;0.80;;;27.60;28.50;;;;;;5108901;27;45248;-73
2022/08/13 02:14:52;;;;;;;0.60;0.60;;;27.60;28.60;;;;;;5107785;27;45227;-72
2022/08/13 02:17:28;;;;;;;0.63;0.63;;;27.60;28.60;;;;;;5108167;27;45207;-72
2022/08/13 02:19:55;;;;;;;0.75;0.70;;;27.50;28.60;;;;;;5108511;27;45194;-72
2022/08/13 02:22:22;;;;;;;1.08;0.63;;;27.50;28.70;;;;;;5108529;27;45399;-72
2022/08/13 02:24:52;;;;;;;0.70;0.70;;;27.50;28.60;;;;;;5108308;27;46457;-72
2022/08/13 02:27:20;;;;;;;0.98;0.98;;;27.50;28.80;;;;;;5108442;27;45213;-72
2022/08/13 02:29:48;;;;;;;0.80;0.80;;;27.50;28.80;;;;;;5114595;27;45224;-72
2022/08/13 02:32:16;;;;;;;0.70;0.70;;;27.50;28.70;;;;;;5129296;27;45279;-72
2022/08/13 02:34:43;;;;;;;0.70;0.70;;;27.40;28.70;;;;;;5128638;27;45235;-72
2022/08/13 02:37:11;;;;;;;0.90;0.90;;;27.40;28.80;;;;;;5128672;27;45496;-72
2022/08/13 02:39:37;;;;;;;0.93;0.93;;;27.40;28.90;;;;;;5128428;27;45324;-72
2022/08/13 02:42:04;;;;;;;1.00;0.73;;;27.40;28.90;;;;;;5128441;27;45347;-72
2022/08/13 02:44:31;;;;;;;0.80;0.70;;;27.40;29.00;;;;;;5128652;27;46509;-72
2022/08/13 02:46:59;;;;;;;1.27;0.82;;;27.30;28.90;;;;;;5128834;27;45184;-73
2022/08/13 02:49:26;;;;;;;1.02;0.90;;;27.30;28.90;;;;;;5128741;27;45268;-73
2022/08/13 02:51:53;;;;;;;0.80;0.80;;;27.30;28.90;;;;;;5119608;27;45450;-72
2022/08/13 02:54:20;;;;;;;0.80;0.80;;;27.30;29.10;;;;;;5107788;27;46113;-73
2022/08/13 02:56:47;;;;;;;0.60;0.60;;;27.30;29.10;;;;;;5107801;27;45228;-73
2022/08/13 02:59:14;;;;;;;0.82;0.82;;;27.20;28.90;;;;;;5108138;27;45126;-70
2022/08/13 03:01:41;;;;;;;0.60;0.60;;;27.20;29.10;;;;;;5108064;27;45453;-71
2022/08/13 03:04:09;;;;;;;1.17;0.90;;;27.20;29.10;;;;;;5107659;27;45466;-71
2022/08/13 03:06:36;;;;;;;0.95;0.90;;;27.20;29.20;;;;;;5107729;27;45187;-71
2022/08/13 03:09:04;;;;;;;0.80;0.80;;;27.10;29.20;;;;;;5107847;27;45187;-73
2022/08/13 03:11:32;;;;;;;1.30;0.90;;;27.20;29.30;;;;;;5107929;27;45469;-71
2022/08/13 03:14:02;;;;;;;0.98;0.75;;;27.10;29.20;;;;;;5107610;27;46377;-71
2022/08/13 03:16:29;;;;;;;0.80;0.80;;;27.10;29.10;;;;;;5107569;27;45141;-71
2022/08/13 03:18:57;;;;;;;0.95;0.73;;;27.10;29.10;;;;;;5107836;27;45399;-70
2022/08/13 03:21:27;;;;;;;0.80;0.77;;;27.10;29.30;;;;;;5107878;27;45282;-70
2022/08/13 03:23:54;;;;;;;0.80;0.80;;;27.00;29.30;;;;;;5107414;27;46720;-71
2022/08/13 03:26:21;;;;;;;0.80;0.80;;;27.10;29.30;;;;;;5107707;27;45382;-70
2022/08/13 03:28:50;;;;;;;0.60;0.60;;;27.00;29.30;;;;;;5107094;27;45291;-70
2022/08/13 03:31:18;;;;;;;0.75;0.75;;;27.00;29.30;;;;;;5107078;27;45330;-71
2022/08/13 03:33:44;;;;;;;0.85;0.82;;;27.00;29.20;;;;;;5107205;27;45216;-73
2022/08/13 03:36:11;;;;;;;0.90;0.80;;;27.00;29.80;;;;;;5106747;27;45387;-71
2022/08/13 03:38:39;;;;;;;1.00;0.90;;;27.00;29.50;;;;;;5107396;27;45295;-71
2022/08/13 03:41:11;;;;;;;0.93;0.80;;;26.90;29.40;;;;;;5107589;27;45246;-71
2022/08/13 03:43:42;;;;;;;1.75;0.85;;;26.90;29.40;;;;;;5107114;27;46337;-71
2022/08/13 03:46:10;;;;;;;1.23;0.90;;;26.90;29.40;;;;;;5107186;27;45205;-70
2022/08/13 03:48:38;;;;;;;0.70;0.70;;;26.90;29.50;;;;;;5107355;27;45354;-70
2022/08/13 03:51:06;;;;;;;0.80;0.80;;;26.80;29.40;;;;;;5109588;27;45303;-71
2022/08/13 03:53:33;;;;;;;0.88;0.80;;;26.80;29.50;;;;;;5127634;27;47593;-71
2022/08/13 03:56:01;;;;;;;0.95;0.95;;;26.90;29.60;;;;;;5127640;27;45202;-71
2022/08/13 03:58:28;;;;;;;0.90;0.90;;;26.80;29.50;;;;;;5127919;27;45337;-71
2022/08/13 04:00:55;;;;;;;0.80;0.80;;;26.80;29.70;;;;;;5127945;27;45277;-70
2022/08/13 04:03:22;;;;;;;0.80;0.80;;;26.80;29.50;;;;;;5127539;27;46333;-70
2022/08/13 04:05:50;;;;;;;0.80;0.80;;;26.80;29.70;;;;;;5127633;27;45146;-71
2022/08/13 04:08:17;;;;;;;1.15;1.00;;;26.70;29.70;;;;;;5127732;27;45299;-70
2022/08/13 04:10:44;;;;;;;0.88;0.88;;;26.70;29.70;;;;;;5127893;27;45282;-71
2022/08/13 04:13:15;;;;;;;1.40;0.95;;;26.70;29.70;;;;;;5127426;27;46753;-70
2022/08/13 04:15:42;;;;;;;0.80;0.80;;;26.70;29.80;;;;;;5127452;27;45213;-70
2022/08/13 04:18:11;;;;;;;1.05;1.05;;;26.70;29.80;;;;;;5128059;27;45235;-71
2022/08/13 04:20:39;;;;;;;1.33;0.90;;;26.70;29.90;;;;;;5127071;27;45182;-71
2022/08/13 04:23:07;;;;;;;1.02;0.82;;;26.70;30.00;;;;;;5126814;27;45515;-71
2022/08/13 04:25:35;;;;;;;0.95;0.90;;;26.60;29.80;;;;;;5127334;27;45378;-71
2022/08/13 04:28:01;;;;;;;0.70;0.70;;;26.60;29.90;;;;;;5127384;27;45221;-71
2022/08/13 04:30:29;;;;;;;1.27;0.90;;;26.60;29.90;;;;;;5115301;27;45200;-73
2022/08/13 04:32:58;;;;;;;0.90;0.90;;;26.60;30.20;;;;;;5106680;27;46423;-71
2022/08/13 04:35:25;;;;;;;0.85;0.80;;;26.50;30.10;;;;;;5106212;27;45377;-71
2022/08/13 04:37:53;;;;;;;1.70;0.90;;;26.50;30.10;;;;;;5106678;27;45201;-71
2022/08/13 04:40:20;;;;;;;0.90;0.90;;;26.50;30.10;;;;;;5110007;27;45164;-71
2022/08/13 04:42:47;;;;;;;0.80;0.80;;;26.50;30.10;;;;;;5110016;27;46260;-71
2022/08/13 04:45:14;;;;;;;1.00;0.90;;;26.50;30.10;;;;;;5109833;27;45302;-71
2022/08/13 04:47:43;;;;;;;1.55;0.90;;;26.50;30.10;;;;;;5110099;27;45252;-71
2022/08/13 04:50:10;;;;;;;0.77;0.77;;;26.50;30.10;;;;;;5110207;27;45482;-71
2022/08/13 04:52:37;;;;;;;1.00;1.00;;;26.50;30.20;;;;;;5125120;27;46680;-71
2022/08/13 04:55:04;;;;;;;0.82;0.82;;;26.40;30.10;;;;;;5130380;27;45412;-71
2022/08/13 04:57:31;;;;;;;1.98;1.00;;;26.50;30.30;;;;;;5130473;27;45308;-71
2022/08/13 04:59:58;;;;;;;0.82;0.82;;;26.40;30.20;;;;;;5130617;27;45401;-71
2022/08/13 05:02:25;;;;;;;1.15;1.05;;;26.40;30.40;;;;;;5130274;27;46429;-71
2022/08/13 05:04:54;;;;;;;1.55;1.00;;;26.40;30.50;;;;;;5130386;27;45329;-71
2022/08/13 05:07:21;;;;;;;1.02;0.90;;;26.40;30.60;;;;;;5130518;27;45304;-71
2022/08/13 05:09:47;;;;;;;1.00;1.00;;;26.40;30.70;;;;;;5129831;27;45327;-71
2022/08/13 05:12:14;;;;;;;1.00;1.00;;;26.40;30.80;;;;;;5130157;27;46315;-71
2022/08/13 05:14:41;;;;;;;2.08;0.98;;;26.40;30.80;;;;;;5130280;27;45245;-71
2022/08/13 05:17:08;;;;;;;5.72;0.95;;;26.40;30.80;;;;;;5130322;27;45235;-71
2022/08/13 05:19:35;;;;;;;1.55;1.00;;;26.30;30.80;;;;;;5130383;27;45277;-71
2022/08/13 05:22:03;;;;;;;1.20;1.10;;;26.30;30.80;;;;;;5130009;27;47364;-71
2022/08/13 05:24:30;;;;;;;1.30;1.00;;;26.30;31.00;;;;;;5130029;27;45183;-71
2022/08/13 05:26:58;;;;;;;1.00;0.93;;;26.30;31.00;;;;;;5130126;27;45305;-71
2022/08/13 05:29:25;;;;;;;1.55;1.00;;;26.30;30.90;;;;;;5127055;27;45610;-71
2022/08/13 05:31:54;;;;;;;1.02;1.02;;;26.30;31.00;;;;;;5109197;27;45458;-71
2022/08/13 05:34:20;;;;;;;0.90;0.90;;;26.20;31.10;;;;;;5109152;27;45176;-70
2022/08/13 05:36:47;;;;;;;1.60;1.00;;;26.20;31.10;;;;;;5109127;27;45390;-71
2022/08/13 05:39:15;;;;;;;1.35;1.20;;;26.20;31.20;;;;;;5109522;27;45244;-71
2022/08/13 05:41:42;;;;;;;0.88;0.88;;;26.20;31.20;;;;;;5108937;27;45235;-71
2022/08/13 05:44:10;;;;;;;0.95;0.90;;;26.20;31.20;;;;;;5109113;27;45193;-71
2022/08/13 05:46:37;;;;;;;0.93;0.93;;;26.20;31.30;;;;;;5108977;27;45178;-71
2022/08/13 05:49:05;;;;;;;1.25;0.98;;;26.20;31.20;;;;;;5109297;27;45281;-71
2022/08/13 05:51:32;;;;;;;1.35;0.90;;;26.20;31.20;;;;;;5113693;27;47288;-70
2022/08/13 05:53:59;;;;;;;0.75;0.70;;;26.20;31.20;;;;;;5129547;27;45227;-71
2022/08/13 05:56:28;;;;;;;0.93;0.93;;;26.20;31.10;;;;;;5128903;27;45198;-71
2022/08/13 05:58:55;;;;;;;1.15;1.10;;;26.20;31.20;;;;;;5129862;27;45309;-71
2022/08/13 06:04:09;;;;;;;0.82;0.82;;;26.20;31.40;;;;;;5126647;27;45258;-73
2022/08/13 06:06:36;;;;;;;0.98;0.98;;;26.30;31.40;;;;;;5129380;27;45140;-71
2022/08/13 06:09:04;;;;;;;1.70;0.90;;;26.30;31.60;;;;;;5129668;27;45277;-71
2022/08/13 06:11:32;;;;;;;1.10;1.00;;;26.20;31.30;;;;;;5129184;27;46752;-73
2022/08/13 06:13:59;;;;;;;1.08;1.08;;;26.20;31.60;;;;;;5129321;27;45214;-72
2022/08/13 06:16:28;;;;;;;1.00;1.00;;;26.20;31.70;;;;;;5129056;27;45189;-73
2022/08/13 06:18:57;;;;;;;1.00;1.00;;;26.20;32.00;;;;;;5129330;27;45230;-73
2022/08/13 06:21:24;;;;;;;1.30;1.20;;;26.20;32.10;;;;;;5128938;27;46485;-71
2022/08/13 06:23:51;;;;;;;1.00;1.00;;;26.30;32.10;;;;;;5129045;27;45167;-71
2022/08/13 06:26:20;;;;;;;1.10;1.00;;;26.30;32.00;;;;;;5129223;27;45223;-73
2022/08/13 06:28:51;;;;;;;2.28;1.10;;;26.30;32.00;;;;;;5129235;27;45600;-72
2022/08/13 06:31:20;;;;;;;1.10;1.10;;;26.30;32.00;;;;;;5109472;27;45468;-71
2022/08/13 06:33:47;;;;;;;0.90;0.90;;;26.30;32.20;;;;;;5108361;27;45281;-72
2022/08/13 06:36:14;;;;;;;0.93;0.93;;;26.30;32.30;;;;;;5108044;27;45234;-73
2022/08/13 06:38:42;;;;;;;1.30;1.20;;;26.30;32.30;;;;;;5108558;27;45428;-73
2022/08/13 06:41:10;;;;;;;2.33;1.13;;;26.30;32.50;;;;;;5107998;27;45402;-72
2022/08/13 06:43:39;;;;;;;1.00;0.90;;;26.30;32.40;;;;;;5108005;27;45290;-73
2022/08/13 06:46:07;;;;;;;1.27;1.10;;;26.30;32.40;;;;;;5108179;27;45185;-73
2022/08/13 06:48:35;;;;;;;1.00;1.00;;;26.30;32.40;;;;;;5108187;27;45404;-73
2022/08/13 06:51:02;;;;;;;1.10;1.00;;;26.30;32.50;;;;;;5109650;27;47327;-73
2022/08/13 06:53:29;;;;;;;1.17;1.00;;;26.30;32.70;;;;;;5127872;27;45243;-73
2022/08/13 06:55:55;;;;;;;1.45;1.30;;;26.40;32.90;;;;;;5128736;27;45240;-73
2022/08/13 06:58:25;;;;;;;1.20;1.17;;;26.40;32.60;;;;;;5128883;27;45450;-73
2022/08/13 07:00:53;;;;;;;1.48;1.10;;;26.30;32.50;;;;;;5128372;27;45544;-73
2022/08/13 07:03:24;;;;;;;1.02;1.00;;;26.30;32.70;;;;;;5128261;27;45141;-73
2022/08/13 07:05:51;;;;;;;0.95;0.95;;;26.30;32.80;;;;;;5128576;27;45283;-73
2022/08/13 07:08:18;;;;;;;1.00;1.00;;;26.40;32.90;;;;;;5128763;27;45181;-73
2022/08/13 07:10:48;;;;;;;0.95;0.95;;;26.40;32.90;;;;;;5128183;27;45282;-73
2022/08/13 07:13:15;;;;;;;2.00;1.20;;;26.40;32.80;;;;;;5128322;27;45317;-73
2022/08/13 07:15:44;;;;;;;1.38;1.27;;;26.40;32.90;;;;;;5128349;27;45346;-73
2022/08/13 07:18:11;;;;;;;1.95;1.10;;;26.40;33.00;;;;;;5128738;27;45394;-73
2022/08/13 07:20:39;;;;;;;1.15;0.88;;;26.40;33.00;;;;;;5128133;27;46350;-73
2022/08/13 07:23:11;;;;;;;1.00;1.00;;;26.40;32.90;;;;;;5128211;27;45301;-73
2022/08/13 07:25:38;;;;;;;1.27;1.17;;;26.40;33.10;;;;;;5128153;27;45193;-72
2022/08/13 07:28:05;;;;;;;1.58;1.10;;;26.40;33.00;;;;;;5128369;27;45380;-73
2022/08/13 07:30:32;;;;;;;1.10;1.00;;;26.40;33.20;;;;;;5115250;27;45390;-73
2022/08/13 07:32:59;;;;;;;2.33;1.20;;;26.40;33.10;;;;;;5107401;27;45207;-73
2022/08/13 07:35:30;;;;;;;1.65;1.20;;;26.50;33.20;;;;;;5107249;27;45198;-72
2022/08/13 07:37:58;;;;;;;1.08;1.00;;;26.50;33.20;;;;;;5107292;27;45622;-73
2022/08/13 07:40:25;;;;;;;1.70;1.30;;;26.50;33.30;;;;;;5107147;27;45311;-73
2022/08/13 07:42:52;;;;;;;1.23;1.10;;;26.50;33.50;;;;;;5127166;27;45144;-73
2022/08/13 07:45:23;;;;;;;1.40;1.20;;;26.50;34.20;;;;;;5127059;27;45308;-73
2022/08/13 07:47:50;;;;;;;1.40;1.25;;;26.50;34.50;;;;;;5126943;27;45414;-73
2022/08/13 07:50:17;;;;;;;1.30;1.20;;;26.50;34.70;;;;;;5126988;27;45502;-73
2022/08/13 07:52:44;;;;;;;1.55;1.30;;;26.50;34.90;;;;;;5127135;27;45413;-73
2022/08/13 07:55:12;;;;;;;2.53;1.10;;;26.50;34.90;;;;;;5127907;27;45332;-73
2022/08/13 07:57:46;;;;;;;1.23;1.10;;;26.50;35.10;;;;;;5127451;27;46287;-73
2022/08/13 08:00:18;;;;;;;1.35;1.25;;;26.50;35.30;;;;;;5127670;27;46311;-72
2022/08/13 08:02:45;;;;;;;1.40;1.30;;;26.50;35.30;;;;;;5126815;27;44761;-73
2022/08/13 08:05:13;;;;;;;2.35;1.30;;;26.50;35.30;;;;;;5127746;27;45267;-73
2022/08/13 08:07:40;;;;;;;2.35;1.30;;;26.50;35.30;;;;;;5127180;27;45120;-72
2022/08/13 08:10:07;;;;;;;1.63;1.20;;;26.60;35.30;;;;;;5127377;27;46817;-73
2022/08/13 08:12:35;;;;;;;3.40;1.38;;;26.60;35.30;;;;;;5127219;27;45351;-73
2022/08/13 08:15:02;;;;;;;2.35;1.30;;;26.60;35.40;;;;;;5130187;27;45312;-73
2022/08/13 08:17:31;;;;;;;1.40;1.23;;;26.60;35.50;;;;;;5131374;27;45316;-73
2022/08/13 08:19:57;;;;;;;1.60;1.10;;;26.60;35.50;;;;;;5130602;27;46766;-73
2022/08/13 08:22:24;;;;;;;2.13;1.30;;;26.60;35.50;;;;;;5130909;27;45256;-73
2022/08/13 08:24:51;;;;;;;1.25;1.20;;;26.70;35.60;;;;;;5130745;27;45285;-73
2022/08/13 08:27:19;;;;;;;1.30;1.20;;;26.70;36.20;;;;;;5131143;27;45260;-73
2022/08/13 08:29:48;;;;;;;2.15;1.23;;;26.70;35.30;;;;;;5122407;27;46493;-72
2022/08/13 08:32:15;;;;;;;1.20;1.10;;;26.70;35.60;;;;;;5126784;27;45381;-72
2022/08/13 08:34:44;;;;;;;1.50;1.40;;;26.70;36.30;;;;;;5129128;27;45431;-72
2022/08/13 08:42:35;;;;;;;1.70;1.30;;;26.80;35.60;;;;;;5129087;27;45206;-73
2022/08/13 08:42:48;;;;;;;1.40;1.30;;;26.80;35.50;;;;;;5125580;27;45652;-73
2022/08/13 08:45:18;;;;;;;1.40;1.30;;;26.90;34.80;;;;;;5130205;27;45397;-73
2022/08/13 08:47:45;;;;;;;1.48;1.08;;;26.90;34.80;;;;;;5130476;27;45459;-73
2022/08/13 08:50:12;;;;;;;1.13;1.02;;;26.90;34.70;;;;;;5130007;27;45255;-73
2022/08/13 08:55:24;;;;;;;1.00;1.00;;;27.00;34.50;;;;;;5119424;27;45320;-72
2022/08/13 08:57:52;;;;;;;1.63;1.20;;;27.10;34.80;;;;;;5130121;27;45187;-73
2022/08/13 09:00:21;;;;;;;2.35;1.10;;;27.10;34.10;;;;;;5128575;27;47002;-73
2022/08/13 09:02:49;;;;;;;3.20;1.30;;;27.10;34.60;;;;;;5130034;27;45313;-73
2022/08/13 09:05:17;;;;;;;2.88;1.23;;;27.10;35.00;;;;;;5129721;27;45200;-73
2022/08/13 09:07:46;;;;;;;1.85;1.10;;;27.10;35.30;;;;;;5130057;27;45194;-75
2022/08/13 09:10:14;;;;;;;1.45;1.17;;;27.10;35.10;;;;;;5130392;27;46986;-73
2022/08/13 09:12:42;;;;;;;1.20;1.10;;;27.10;35.20;;;;;;5130146;27;45196;-73
2022/08/13 09:15:10;;;;;;;1.23;1.13;;;27.10;35.30;;;;;;5110317;27;45136;-73
2022/08/13 09:17:38;;;;;;;4.40;1.30;;;27.10;35.40;;;;;;5113649;27;45379;-72
2022/08/13 09:20:06;;;;;;;5.95;1.40;;;27.10;36.00;;;;;;5129382;27;46721;-72
2022/08/13 09:22:33;;;;;;;3.63;1.58;;;27.20;35.90;;;;;;5129663;27;45248;-72
2022/08/13 09:25:00;;;;;;;6.18;1.30;;;27.30;35.70;;;;;;5129750;27;45296;-72
2022/08/13 09:27:28;;;;;;;1.63;1.40;;;27.30;35.50;;;;;;5130172;27;45306;-72
2022/08/13 09:29:54;;;;;;;3.92;1.30;;;27.40;35.60;;;;;;5127368;27;46887;-72
2022/08/13 09:32:22;;;;;;;1.40;1.10;;;27.40;35.30;;;;;;5127038;27;45204;-72
2022/08/13 09:34:50;;;;;;;1.45;1.25;;;27.40;35.30;;;;;;5129894;27;45309;-72
2022/08/13 09:37:17;;;;;;;1.63;1.35;;;27.40;35.20;;;;;;5129448;27;45477;-72
2022/08/13 09:39:49;;;;;;;1.60;1.30;;;27.40;35.30;;;;;;5129509;27;45332;-72
2022/08/13 09:42:27;;;;;;;1.48;1.38;;;27.40;35.40;;;;;;5129609;27;45220;-73
2022/08/13 09:44:54;;;;;;;5.20;1.20;;;27.40;35.20;;;;;;5129508;27;45328;-72
2022/08/13 09:47:21;;;;;;;2.22;1.20;;;27.50;35.10;;;;;;5129756;27;45389;-72
2022/08/13 09:49:50;;;;;;;1.88;1.30;;;27.60;35.20;;;;;;5129123;27;47328;-72
2022/08/13 09:52:17;;;;;;;1.50;1.40;;;27.60;34.80;;;;;;5116244;27;45315;-73
2022/08/13 09:54:44;;;;;;;1.40;1.30;;;27.60;34.40;;;;;;5106257;27;45280;-73
2022/08/13 09:57:11;;;;;;;3.85;1.23;;;27.70;34.50;;;;;;5109194;27;45191;-73
2022/08/13 09:59:38;;;;;;;1.30;1.20;;;27.80;34.50;;;;;;5114674;27;45306;-73
2022/08/13 10:02:09;;;;;;;1.10;1.00;;;27.90;34.30;;;;;;5129259;27;45330;-73
2022/08/13 10:04:37;;;;;;;1.10;1.00;;;27.90;33.90;;;;;;5126572;27;45159;-73
2022/08/13 10:07:06;;;;;;;1.25;1.25;;;27.90;33.90;;;;;;5129113;27;45560;-72
2022/08/13 10:09:33;;;;;;;1.27;1.17;;;28.00;33.80;;;;;;5128860;27;46915;-73
2022/08/13 10:12:00;;;;;;;1.88;1.10;;;28.10;33.40;;;;;;5128966;27;45250;-73
2022/08/13 10:14:27;;;;;;;1.08;0.98;;;28.10;33.30;;;;;;5129230;27;45142;-73
2022/08/13 10:16:54;;;;;;;1.17;1.08;;;28.20;33.10;;;;;;5129398;27;45176;-73
2022/08/13 10:19:21;;;;;;;1.00;1.00;;;28.20;31.60;;;;;;5128985;27;45289;-72
2022/08/13 10:21:48;;;;;;;1.20;1.05;;;28.30;31.00;;;;;;5128926;27;45312;-72
2022/08/13 10:24:16;;;;;;;1.08;1.08;;;28.40;30.70;;;;;;5128811;27;45379;-73
2022/08/13 10:26:43;;;;;;;0.90;0.90;;;28.50;30.50;;;;;;5127226;27;45398;-73
2022/08/13 10:29:10;;;;;;;1.80;1.30;;;28.50;30.90;;;;;;5128723;27;46587;-72
2022/08/13 10:31:37;;;;;;;1.75;1.02;;;28.60;31.30;;;;;;5128943;27;45388;-72
2022/08/13 10:34:04;;;;;;;1.23;1.10;;;28.60;30.90;;;;;;5128733;27;45365;-72
2022/08/13 10:36:31;;;;;;;0.90;0.90;;;28.60;29.00;;;;;;5127983;27;45260;-72
2022/08/13 10:38:58;;;;;;;1.48;0.90;;;28.70;28.40;;;;;;5127881;27;46413;-72
2022/08/13 10:41:26;;;;;;;1.38;0.90;;;28.80;28.10;;;;;;5129026;27;45168;-72
2022/08/13 10:43:59;;;;;;;0.93;0.93;;;28.80;27.80;;;;;;5128001;27;45310;-72
2022/08/13 10:46:26;;;;;;;2.17;0.93;;;28.80;27.40;;;;;;5125188;27;45478;-72
2022/08/13 10:48:55;;;;;;;1.35;1.00;;;28.90;27.40;;;;;;5118989;27;45493;-73
2022/08/13 10:51:22;;;;;;;0.95;0.90;;;29.00;27.60;;;;;;5122267;27;45440;-71
2022/08/13 10:53:59;;;;;;;7.22;1.10;;;29.10;27.50;;;;;;5128526;27;45145;-72
2022/08/13 10:56:28;;;;;;;3.35;1.30;;;29.10;29.10;;;;;;5128431;27;45457;-71
2022/08/13 10:58:56;;;;;;;7.22;1.50;;;29.10;29.80;;;;;;5127881;27;48275;-72
2022/08/13 11:01:24;;;;;;;2.10;1.45;;;29.10;30.50;;;;;;5128260;27;45242;-72
2022/08/13 11:03:52;;;;;;;1.55;1.00;;;29.30;30.60;;;;;;5120474;27;45310;-71
2022/08/13 11:06:19;;;;;;;6.13;1.77;;;29.30;30.80;;;;;;5107857;27;45466;-72
2022/08/13 11:08:47;;;;;;;1.30;1.20;;;29.30;31.30;;;;;;5107426;27;45242;-72
2022/08/13 11:11:14;;;;;;;3.08;1.35;;;29.50;31.20;;;;;;5107670;27;45176;-73
2022/08/13 11:13:42;;;;;;;6.88;1.20;;;29.50;31.60;;;;;;5105075;27;45381;-73
2022/08/13 11:16:56;;;;;;;5.47;1.45;;;29.60;30.80;;;;;;5107725;27;45624;-72
2022/08/13 11:18:56;;;;;;;10.27;1.65;;;29.60;31.10;;;;;;5106347;27;46499;-73
2022/08/13 11:21:24;;;;;;;2.53;1.00;;;29.70;29.70;;;;;;5116239;27;45182;-73
2022/08/13 11:23:51;;;;;;;2.80;1.20;;;29.80;28.50;;;;;;5128177;27;45235;-73
2022/08/13 11:26:18;;;;;;;1.50;0.95;;;29.90;28.60;;;;;;5128497;27;45277;-74
2022/08/13 11:28:46;;;;;;;5.38;1.23;;;29.90;28.30;;;;;;5128095;27;46553;-73
2022/08/13 11:31:13;;;;;;;1.35;1.08;;;30.00;29.70;;;;;;5106803;27;45544;-73
2022/08/13 11:33:40;;;;;;;7.75;1.55;;;30.10;30.40;;;;;;5107525;27;45192;-73
2022/08/13 11:36:07;;;;;;;6.20;1.00;;;30.20;29.00;;;;;;5107098;27;45422;-72
2022/08/13 11:38:34;;;;;;;7.20;1.40;;;30.20;27.80;;;;;;5103450;27;45270;-72
2022/08/13 11:41:01;;;;;;;6.90;1.27;;;30.30;28.00;;;;;;5107097;27;45244;-72
2022/08/13 11:43:29;;;;;;;2.47;0.93;;;30.40;28.20;;;;;;5104628;27;45124;-73
2022/08/13 11:45:57;;;;;;;2.67;1.20;;;30.50;28.10;;;;;;5107548;27;45218;-73
2022/08/13 11:48:24;;;;;;;10.32;1.00;;;30.60;28.40;;;;;;5107228;27;45467;-72
2022/08/13 11:50:51;;;;;;;7.80;1.10;;;30.60;27.00;;;;;;5111359;27;45176;-74
2022/08/13 11:53:18;;;;;;;6.85;1.23;;;30.60;28.20;;;;;;5130163;27;45228;-73
2022/08/13 11:55:45;;;;;;;0.88;0.70;;;30.70;28.30;;;;;;5115267;27;45175;-72
2022/08/13 11:58:12;;;;;;;2.95;0.90;;;30.80;27.30;;;;;;5110220;27;47291;-72
2022/08/13 12:00:40;;;;;;;6.18;1.38;;;30.90;28.00;;;;;;5107812;27;45292;-71
2022/08/13 12:03:08;;;;;;;7.43;1.65;;;30.80;27.70;;;;;;5110590;27;45181;-72
2022/08/13 12:05:35;;;;;;;1.60;1.20;;;30.90;27.30;;;;;;5110884;27;45186;-72
2022/08/13 12:08:02;;;;;;;1.00;1.00;;;30.90;27.40;;;;;;5109905;27;45459;-72
2022/08/13 12:10:30;;;;;;;1.08;1.08;;;31.10;27.70;;;;;;5110181;27;45350;-72
2022/08/13 12:12:56;;;;;;;1.23;1.13;;;31.20;27.70;;;;;;5110340;27;45208;-72
2022/08/13 12:15:23;;;;;;;1.27;1.15;;;31.30;27.90;;;;;;5110587;27;45185;-71
2022/08/13 12:17:50;;;;;;;3.10;1.20;;;31.40;27.80;;;;;;5110408;27;45217;-71
2022/08/13 12:20:19;;;;;;;1.02;1.00;;;31.50;27.80;;;;;;5109963;27;45337;-71
2022/08/13 12:22:46;;;;;;;1.20;1.10;;;31.60;27.80;;;;;;5111568;27;45471;-73
2022/08/13 12:25:14;;;;;;;2.78;1.10;;;31.60;27.80;;;;;;5130322;27;45679;-72
2022/08/13 12:27:41;;;;;;;1.95;1.40;;;31.70;28.70;;;;;;5130429;27;45273;-73
2022/08/13 12:30:08;;;;;;;0.90;0.90;;;31.80;28.00;;;;;;5130671;27;45333;-72
2022/08/13 12:32:35;;;;;;;0.93;0.93;;;31.80;26.90;;;;;;5130609;27;45243;-71
2022/08/13 12:35:02;;;;;;;0.80;0.80;;;31.90;26.50;;;;;;5130399;27;45283;-72
2022/08/13 12:37:30;;;;;;;0.80;0.80;;;32.00;25.80;;;;;;5130422;27;45207;-72
2022/08/13 12:39:57;;;;;;;0.85;0.85;;;32.10;25.60;;;;;;5130682;27;45306;-72
2022/08/13 12:42:26;;;;;;;1.23;0.70;;;32.20;25.00;;;;;;5130607;27;45303;-73
2022/08/13 12:44:53;;;;;;;0.85;0.70;;;32.20;24.40;;;;;;5131170;27;45203;-74
2022/08/13 12:47:19;;;;;;;1.25;0.80;;;32.30;23.90;;;;;;5129352;27;45200;-74
2022/08/13 12:49:46;;;;;;;0.80;0.80;;;32.30;23.80;;;;;;5130597;27;45374;-73
2022/08/13 12:52:13;;;;;;;0.85;0.77;;;32.40;24.10;;;;;;5129435;27;45243;-72
2022/08/13 12:54:41;;;;;;;0.68;0.68;;;32.40;23.50;;;;;;5125436;27;45520;-73
2022/08/13 12:57:08;;;;;;;0.90;0.90;;;32.40;23.20;;;;;;5125492;27;47307;-73
2022/08/13 12:59:35;;;;;;;0.70;0.70;;;32.50;23.10;;;;;;5129355;27;45322;-71
2022/08/13 13:02:02;;;;;;;0.70;0.70;;;32.60;23.00;;;;;;5129532;27;45323;-73
2022/08/13 13:04:29;;;;;;;1.75;0.88;;;32.60;22.70;;;;;;5129271;27;45476;-71
2022/08/13 13:06:55;;;;;;;0.70;0.70;;;32.70;22.90;;;;;;5127180;27;46223;-72